Weather at Fort Lauderdale Hollywood International Airport

Public forecast

Using degrees Fahrenheit for public forecast. Weather courtesy of forecast.io.

Current aviation weather report (METAR) for Fort Lauderdale Hollywood International Airport

2024/02/29 09:53 (retrieved 8 minutes ago)

KFLL 290953Z 00000KT 10SM SCT043 21/19 A3014 RMK AO2 SLP205 T02110194

Aviation forecast (TAF) for Fort Lauderdale Hollywood International Airport

2024/02/29 09:09 Ammendment (retrieved 52 minutes ago)

TAF AMD KFLL 290900Z 2909/0112 VRB04KT P6SM SCT040 BKN250 FM291500 10010KT P6SM SCT030 BKN250